Time;durP1;ratioP1;P1;durP2;ratioP2;P2;SDS_P1;SDS_P2;PMS_P1;PMS_P2;Temp;Humidity;BMP_temperature;BMP_pressure;BME280_temperature;BME280_humidity;BME280_pressure;Samples;Min_cycle;Max_cycle;Signal;HPM_P1;HPM_P2
2023/08/22 00:00:51;;;;;;;5.38;2.90;;;18.60;99.90;;;;;;5092706;28;20146;-65
2023/08/22 00:03:16;;;;;;;7.32;3.67;;;18.70;99.90;;;;;;5094195;28;20104;-66
2023/08/22 00:05:42;;;;;;;7.20;3.92;;;18.70;99.90;;;;;;5094143;28;20085;-66
2023/08/22 00:08:08;;;;;;;4.32;2.80;;;18.70;99.90;;;;;;5093990;28;20513;-66
2023/08/22 00:10:34;;;;;;;3.20;2.55;;;18.70;99.90;;;;;;5093683;28;20043;-66
2023/08/22 00:13:00;;;;;;;6.63;3.20;;;18.70;99.90;;;;;;5093990;28;20036;-66
2023/08/22 00:15:26;;;;;;;5.97;3.25;;;18.70;99.90;;;;;;5093669;28;20112;-66
2023/08/22 00:17:52;;;;;;;5.40;2.97;;;18.70;99.90;;;;;;5093777;28;20696;-66
2023/08/22 00:20:18;;;;;;;6.53;3.78;;;18.70;99.90;;;;;;5093605;28;20048;-66
2023/08/22 00:22:44;;;;;;;7.90;3.35;;;18.70;99.90;;;;;;5092714;28;20619;-66
2023/08/22 00:25:10;;;;;;;4.57;3.35;;;18.70;99.90;;;;;;5093281;28;20135;-66
2023/08/22 00:27:37;;;;;;;5.10;3.30;;;18.70;99.90;;;;;;5093485;28;20050;-66
2023/08/22 00:30:03;;;;;;;6.38;3.78;;;18.70;99.90;;;;;;5093707;28;20081;-67
2023/08/22 00:32:30;;;;;;;5.80;4.10;;;18.70;99.90;;;;;;5092787;28;20036;-66
2023/08/22 00:34:55;;;;;;;7.75;4.75;;;18.70;99.90;;;;;;5093298;28;20051;-66
2023/08/22 00:37:21;;;;;;;6.97;4.75;;;18.60;99.90;;;;;;5093197;28;20036;-66
2023/08/22 00:39:46;;;;;;;11.35;5.60;;;18.60;99.90;;;;;;5092920;28;20473;-66
2023/08/22 00:42:12;;;;;;;11.45;5.63;;;18.50;99.90;;;;;;5101890;22;20451;-66
2023/08/22 00:44:38;;;;;;;8.27;5.45;;;18.50;99.90;;;;;;5058398;28;20474;-67
2023/08/22 00:47:04;;;;;;;8.30;5.00;;;18.50;99.90;;;;;;5062951;28;20040;-67
2023/08/22 00:49:31;;;;;;;5.43;4.60;;;18.40;99.90;;;;;;5072587;28;20040;-67
2023/08/22 00:51:59;;;;;;;9.23;4.97;;;18.50;99.90;;;;;;5072502;28;20047;-67
2023/08/22 00:54:26;;;;;;;6.88;4.82;;;18.50;99.90;;;;;;5073034;28;20429;-66
2023/08/22 00:56:53;;;;;;;7.32;4.93;;;18.40;99.90;;;;;;5072983;28;20068;-67
2023/08/22 00:59:19;;;;;;;8.35;4.50;;;18.40;99.90;;;;;;5072870;28;20041;-66
2023/08/22 01:01:44;;;;;;;6.72;4.45;;;18.40;99.90;;;;;;5067023;28;20036;-67
2023/08/22 01:04:10;;;;;;;6.82;4.63;;;18.40;99.90;;;;;;5072554;28;20040;-67
2023/08/22 01:06:47;;;;;;;7.30;4.97;;;18.40;99.90;;;;;;5072475;28;20487;-66
2023/08/22 01:09:46;;;;;;;8.52;5.20;;;18.30;99.90;;;;;;5072904;28;20037;-66
2023/08/22 01:12:28;;;;;;;9.50;4.93;;;18.30;99.90;;;;;;5072424;28;20036;-66
2023/08/22 01:15:03;;;;;;;9.30;5.15;;;18.30;99.90;;;;;;5071819;28;20422;-66
2023/08/22 01:17:29;;;;;;;10.00;5.15;;;18.30;99.90;;;;;;5072063;28;20040;-66
2023/08/22 01:19:55;;;;;;;9.38;5.22;;;18.30;99.90;;;;;;5072582;28;20037;-67
2023/08/22 01:22:25;;;;;;;10.57;5.15;;;18.20;99.90;;;;;;5072205;28;20043;-66
2023/08/22 01:24:50;;;;;;;7.65;4.57;;;18.20;99.90;;;;;;5071566;28;20063;-67
2023/08/22 01:27:20;;;;;;;8.48;5.25;;;18.20;99.90;;;;;;5071888;28;20033;-67
2023/08/22 01:29:55;;;;;;;6.03;4.55;;;18.20;99.90;;;;;;5054476;28;20486;-66
2023/08/22 01:32:29;;;;;;;6.38;4.45;;;18.20;99.90;;;;;;5071519;28;20072;-67
2023/08/22 01:35:02;;;;;;;6.68;4.07;;;18.20;99.90;;;;;;5071941;28;20043;-67
2023/08/22 01:37:30;;;;;;;7.15;3.97;;;18.20;99.90;;;;;;5072135;28;20048;-67
2023/08/22 01:39:58;;;;;;;6.80;4.25;;;18.20;99.90;;;;;;5072040;28;20067;-67
2023/08/22 01:42:24;;;;;;;7.47;4.57;;;18.30;99.90;;;;;;5071833;28;20059;-67
2023/08/22 01:44:50;;;;;;;6.22;4.70;;;18.20;99.90;;;;;;5072064;28;20059;-67
2023/08/22 01:47:16;;;;;;;8.60;4.70;;;18.20;99.90;;;;;;5072120;28;20486;-67
2023/08/22 01:49:41;;;;;;;5.60;4.30;;;18.20;99.90;;;;;;5072053;28;20047;-67
2023/08/22 01:52:07;;;;;;;8.07;4.90;;;18.20;99.90;;;;;;5071858;28;20029;-66
2023/08/22 01:54:36;;;;;;;5.30;4.65;;;18.20;99.90;;;;;;5071668;28;20444;-67
2023/08/22 01:57:02;;;;;;;6.00;3.90;;;18.20;99.90;;;;;;5071931;28;20055;-67
2023/08/22 01:59:28;;;;;;;5.20;4.10;;;18.20;99.90;;;;;;5072030;28;20032;-67
2023/08/22 02:01:53;;;;;;;5.20;3.90;;;18.20;99.90;;;;;;5077922;28;20097;-67
2023/08/22 02:04:19;;;;;;;4.97;4.13;;;18.20;99.90;;;;;;5083675;28;20093;-67
2023/08/22 02:06:46;;;;;;;6.85;3.90;;;18.20;99.90;;;;;;5091077;28;20549;-67
2023/08/22 02:09:12;;;;;;;5.72;3.63;;;18.30;99.90;;;;;;5073364;28;20115;-67
2023/08/22 02:11:38;;;;;;;6.88;4.18;;;18.20;99.90;;;;;;5091918;28;20047;-67
2023/08/22 02:14:03;;;;;;;5.25;3.80;;;18.30;99.90;;;;;;5072239;28;20049;-67
2023/08/22 02:16:29;;;;;;;6.35;4.38;;;18.30;99.90;;;;;;5071824;28;20086;-67
2023/08/22 02:18:55;;;;;;;7.72;5.00;;;18.30;99.90;;;;;;5071488;28;20029;-67
2023/08/22 02:21:21;;;;;;;8.05;4.20;;;18.30;99.90;;;;;;5071791;28;20429;-67
2023/08/22 02:23:46;;;;;;;5.45;4.47;;;18.30;99.90;;;;;;5071036;28;20167;-67
2023/08/22 02:26:12;;;;;;;7.70;4.78;;;18.20;99.90;;;;;;5071844;28;20036;-66
2023/08/22 02:28:37;;;;;;;6.22;4.82;;;18.20;99.90;;;;;;5071641;28;20091;-67
2023/08/22 02:31:03;;;;;;;8.57;4.78;;;18.10;99.90;;;;;;5071478;28;20036;-67
2023/08/22 02:33:29;;;;;;;6.43;4.55;;;18.10;99.90;;;;;;5071022;28;20035;-67
2023/08/22 02:35:55;;;;;;;7.95;4.88;;;18.00;99.90;;;;;;5071578;28;20437;-66
2023/08/22 02:38:20;;;;;;;6.82;4.60;;;18.00;99.90;;;;;;5071495;28;20040;-67
2023/08/22 02:40:46;;;;;;;8.75;4.70;;;17.90;99.90;;;;;;5071623;28;20036;-67
2023/08/22 02:43:11;;;;;;;8.73;4.68;;;17.80;99.90;;;;;;5071182;28;20095;-66
2023/08/22 02:45:37;;;;;;;7.40;5.30;;;17.80;99.90;;;;;;5074735;28;20493;-67
2023/08/22 02:48:04;;;;;;;7.40;4.53;;;17.80;99.90;;;;;;5075148;28;20040;-67
2023/08/22 02:50:29;;;;;;;6.57;4.60;;;17.70;99.90;;;;;;5075328;28;20040;-67
2023/08/22 02:52:55;;;;;;;6.63;4.70;;;17.70;99.90;;;;;;5074910;28;20426;-67
2023/08/22 02:55:20;;;;;;;7.93;4.53;;;17.70;99.90;;;;;;5074668;28;20036;-67
2023/08/22 02:57:46;;;;;;;7.07;4.25;;;17.60;99.90;;;;;;5074683;28;20099;-67
2023/08/22 03:00:13;;;;;;;7.97;4.22;;;17.60;99.90;;;;;;5075217;28;20032;-66
2023/08/22 03:02:39;;;;;;;8.48;4.25;;;17.70;99.90;;;;;;5056929;28;20562;-66
2023/08/22 03:05:08;;;;;;;8.48;4.72;;;17.70;99.90;;;;;;5074403;28;20470;-66
2023/08/22 03:07:34;;;;;;;5.50;3.95;;;17.70;99.90;;;;;;5074643;28;20044;-66
2023/08/22 03:10:00;;;;;;;6.65;4.00;;;17.70;99.90;;;;;;5074843;28;20040;-66
2023/08/22 03:12:26;;;;;;;9.85;4.60;;;17.70;99.90;;;;;;5056136;28;20067;-67
2023/08/22 03:14:51;;;;;;;6.25;4.75;;;17.60;99.90;;;;;;5056423;28;20379;-67
2023/08/22 03:17:17;;;;;;;5.57;4.38;;;17.70;99.90;;;;;;5074823;28;20048;-66
2023/08/22 03:19:43;;;;;;;8.23;5.20;;;17.70;99.90;;;;;;5056859;28;20044;-67
2023/08/22 03:22:08;;;;;;;8.57;5.93;;;17.70;99.90;;;;;;5055969;28;20060;-67
2023/08/22 03:24:34;;;;;;;10.00;5.28;;;17.60;99.90;;;;;;5074341;28;20037;-66
2023/08/22 03:26:59;;;;;;;8.68;5.43;;;17.60;99.90;;;;;;5074708;28;20044;-67
2023/08/22 03:29:25;;;;;;;8.93;5.40;;;17.60;99.90;;;;;;5074420;28;20047;-67
2023/08/22 03:31:51;;;;;;;6.55;4.72;;;17.50;99.90;;;;;;5074599;28;20119;-67
2023/08/22 03:34:16;;;;;;;6.93;3.88;;;17.50;99.90;;;;;;5074172;28;20059;-67
2023/08/22 03:36:42;;;;;;;5.95;3.80;;;17.60;99.90;;;;;;5074337;28;20540;-67
2023/08/22 03:39:08;;;;;;;6.00;4.20;;;17.60;99.90;;;;;;5074566;28;20040;-66
2023/08/22 03:41:33;;;;;;;8.43;5.00;;;17.50;99.90;;;;;;5074493;28;20068;-67
2023/08/22 03:43:59;;;;;;;6.00;4.20;;;17.50;99.90;;;;;;5073876;28;20094;-66
2023/08/22 03:46:24;;;;;;;6.70;3.85;;;17.50;99.90;;;;;;5074340;28;20068;-67
2023/08/22 03:48:50;;;;;;;4.25;2.25;;;17.50;99.90;;;;;;5074179;28;20041;-67
2023/08/22 03:51:16;;;;;;;4.90;3.40;;;17.60;99.90;;;;;;5074112;28;20482;-67
2023/08/22 03:53:41;;;;;;;4.28;3.15;;;17.60;99.90;;;;;;5072938;28;20037;-67
2023/08/22 03:56:07;;;;;;;5.28;4.07;;;17.60;99.90;;;;;;5073108;28;20401;-67
2023/08/22 03:58:33;;;;;;;5.22;4.13;;;17.50;99.90;;;;;;5073873;28;20048;-67
2023/08/22 04:01:05;;;;;;;5.10;3.63;;;17.50;99.90;;;;;;5073881;28;20055;-67
2023/08/22 04:03:31;;;;;;;6.57;4.25;;;17.60;99.90;;;;;;5083170;28;20047;-67
2023/08/22 04:05:58;;;;;;;5.60;4.05;;;17.50;99.90;;;;;;5084115;28;20039;-67
2023/08/22 04:08:24;;;;;;;6.78;4.95;;;17.50;99.90;;;;;;5093907;28;20054;-67
2023/08/22 04:10:53;;;;;;;6.45;4.40;;;17.50;99.90;;;;;;5094164;28;20032;-66
2023/08/22 04:13:19;;;;;;;6.38;4.07;;;17.40;99.90;;;;;;5081087;28;20068;-66
2023/08/22 04:15:45;;;;;;;7.25;4.30;;;17.40;99.90;;;;;;5073549;28;20513;-66
2023/08/22 04:18:11;;;;;;;6.47;4.15;;;17.40;99.90;;;;;;5073708;28;20040;-66
2023/08/22 04:20:36;;;;;;;4.95;3.97;;;17.30;99.90;;;;;;5072987;28;20525;-67
2023/08/22 04:23:02;;;;;;;5.38;3.95;;;17.30;99.90;;;;;;5073482;28;20044;-67
2023/08/22 04:25:28;;;;;;;4.32;3.80;;;17.20;99.90;;;;;;5073100;28;20040;-67
2023/08/22 04:27:53;;;;;;;7.15;4.70;;;17.20;99.90;;;;;;5073014;28;20158;-66
2023/08/22 04:30:19;;;;;;;10.13;5.30;;;17.10;99.90;;;;;;5073113;28;20072;-67
2023/08/22 04:32:45;;;;;;;7.15;4.90;;;17.00;99.90;;;;;;5073177;28;20111;-67
2023/08/22 04:35:10;;;;;;;7.00;4.93;;;17.00;99.90;;;;;;5072861;28;20036;-66
2023/08/22 04:37:36;;;;;;;5.32;4.30;;;16.90;99.90;;;;;;5073446;28;20090;-67
2023/08/22 04:40:03;;;;;;;4.38;3.97;;;17.00;99.90;;;;;;5073270;28;20505;-67
2023/08/22 04:42:29;;;;;;;6.25;4.40;;;16.90;99.90;;;;;;5073063;28;20040;-67
2023/08/22 04:44:54;;;;;;;8.05;5.15;;;16.90;99.90;;;;;;5072670;28;20466;-67
2023/08/22 04:47:20;;;;;;;5.20;4.70;;;16.90;99.90;;;;;;5072988;28;20071;-67
2023/08/22 04:49:46;;;;;;;9.55;4.18;;;16.80;99.90;;;;;;5072786;28;20509;-66
2023/08/22 04:52:11;;;;;;;7.35;4.75;;;16.80;99.90;;;;;;5072622;28;20048;-67
2023/08/22 04:54:37;;;;;;;6.22;4.43;;;16.80;99.90;;;;;;5072371;28;20040;-66
2023/08/22 04:57:03;;;;;;;4.82;3.70;;;16.80;99.90;;;;;;5072881;28;20483;-67
2023/08/22 04:59:28;;;;;;;3.90;3.47;;;16.80;99.90;;;;;;5072834;28;20174;-67
2023/08/22 05:01:54;;;;;;;6.78;3.83;;;16.90;99.90;;;;;;5072215;28;20044;-67
2023/08/22 05:04:20;;;;;;;5.75;4.53;;;16.90;99.90;;;;;;5072113;28;20040;-67
2023/08/22 05:06:45;;;;;;;5.97;4.63;;;16.90;99.90;;;;;;5072423;28;20032;-67
2023/08/22 05:09:14;;;;;;;4.78;4.22;;;16.80;99.90;;;;;;5072682;28;20444;-67
2023/08/22 05:11:40;;;;;;;5.15;4.65;;;16.70;99.90;;;;;;5072952;28;20047;-67
2023/08/22 05:14:06;;;;;;;8.23;4.60;;;16.70;99.90;;;;;;5072159;28;20032;-67
2023/08/22 05:16:32;;;;;;;5.95;4.55;;;16.70;99.90;;;;;;5072469;28;20047;-66
2023/08/22 05:18:57;;;;;;;6.72;5.30;;;16.70;99.90;;;;;;5054490;28;20405;-67
2023/08/22 05:21:24;;;;;;;11.77;7.07;;;16.70;99.90;;;;;;5072283;28;20036;-67
2023/08/22 05:23:49;;;;;;;7.45;5.65;;;16.60;99.90;;;;;;5072315;28;20048;-67
2023/08/22 05:26:15;;;;;;;12.10;4.15;;;16.60;99.90;;;;;;5072260;28;20037;-66
2023/08/22 05:28:40;;;;;;;4.15;3.72;;;16.60;99.90;;;;;;5072210;28;20036;-67
2023/08/22 05:31:06;;;;;;;4.57;3.65;;;16.60;99.90;;;;;;5072217;28;20048;-66
2023/08/22 05:33:32;;;;;;;4.45;3.90;;;16.60;99.90;;;;;;5071694;28;20041;-67
2023/08/22 05:35:57;;;;;;;4.10;3.70;;;16.60;99.90;;;;;;5072334;28;20040;-67
2023/08/22 05:38:23;;;;;;;3.65;3.35;;;16.60;99.90;;;;;;5072135;28;20117;-67
2023/08/22 05:40:48;;;;;;;4.13;3.50;;;16.70;99.90;;;;;;5072203;28;20040;-66
2023/08/22 05:43:14;;;;;;;5.10;3.65;;;16.80;99.90;;;;;;5071807;28;20036;-66
2023/08/22 05:45:39;;;;;;;3.55;3.25;;;16.80;99.90;;;;;;5071884;28;20044;-67
2023/08/22 05:48:06;;;;;;;5.03;4.00;;;16.80;99.90;;;;;;5071879;28;20401;-67
2023/08/22 05:50:32;;;;;;;5.60;4.25;;;16.90;99.90;;;;;;5072189;28;20120;-66
2023/08/22 05:52:57;;;;;;;5.97;4.45;;;17.00;99.90;;;;;;5054184;28;20156;-67
2023/08/22 05:55:23;;;;;;;5.75;4.55;;;17.10;99.90;;;;;;5071722;28;20032;-67
2023/08/22 05:57:49;;;;;;;8.57;4.78;;;17.10;99.90;;;;;;5072073;28;20394;-66
2023/08/22 06:00:16;;;;;;;6.18;5.15;;;17.20;99.90;;;;;;5071234;28;20032;-67
2023/08/22 06:02:42;;;;;;;7.40;6.55;;;17.30;99.90;;;;;;5071682;28;20044;-67
2023/08/22 06:05:07;;;;;;;8.70;6.75;;;17.40;99.90;;;;;;5071469;28;20040;-66
2023/08/22 06:07:33;;;;;;;11.88;9.05;;;17.40;99.90;;;;;;5071417;28;20079;-67
2023/08/22 06:10:00;;;;;;;17.10;11.15;;;17.50;99.90;;;;;;5071744;28;20028;-67
2023/08/22 06:12:26;;;;;;;17.95;12.38;;;17.60;99.90;;;;;;5071584;28;20040;-66
2023/08/22 06:14:52;;;;;;;17.23;12.02;;;17.80;99.90;;;;;;5071167;28;20036;-67
2023/08/22 06:17:17;;;;;;;15.80;11.93;;;17.90;99.90;;;;;;5071658;28;20059;-67
2023/08/22 06:19:43;;;;;;;16.00;12.50;;;18.00;99.90;;;;;;5073719;28;20391;-67
2023/08/22 06:22:09;;;;;;;16.65;11.73;;;18.20;99.90;;;;;;5075899;28;20475;-66
2023/08/22 06:24:34;;;;;;;16.95;11.65;;;18.20;99.90;;;;;;5075477;28;20063;-67
2023/08/22 06:27:00;;;;;;;16.52;11.65;;;18.40;99.90;;;;;;5075660;28;20045;-67
2023/08/22 06:29:25;;;;;;;16.65;12.43;;;18.50;99.90;;;;;;5075721;28;20395;-67
2023/08/22 06:31:51;;;;;;;17.02;12.43;;;18.60;99.90;;;;;;5075018;28;20048;-67
2023/08/22 06:34:16;;;;;;;17.48;12.27;;;18.70;99.90;;;;;;5075461;28;20064;-67
2023/08/22 06:36:42;;;;;;;17.08;12.27;;;18.80;99.90;;;;;;5075317;28;20530;-67
2023/08/22 06:39:08;;;;;;;15.43;11.70;;;19.00;99.90;;;;;;5075692;28;20100;-67
2023/08/22 06:41:35;;;;;;;18.08;10.63;;;19.20;99.90;;;;;;5074725;28;20072;-67
2023/08/22 06:44:07;;;;;;;13.73;10.25;;;19.40;99.90;;;;;;5086336;22;20059;-66
2023/08/22 06:46:34;;;;;;;18.27;11.25;;;19.50;99.90;;;;;;5073719;28;20036;-66
2023/08/22 06:49:00;;;;;;;17.58;10.98;;;19.70;99.90;;;;;;5075353;28;20059;-66
2023/08/22 06:51:26;;;;;;;15.00;10.50;;;19.80;99.90;;;;;;5075327;28;20033;-66
2023/08/22 06:53:51;;;;;;;19.98;10.10;;;19.90;99.90;;;;;;5074981;28;20120;-66
2023/08/22 06:56:17;;;;;;;17.48;10.60;;;20.00;99.90;;;;;;5075178;28;20111;-66
2023/08/22 06:58:43;;;;;;;16.23;10.23;;;20.10;99.90;;;;;;5074628;28;20043;-66
2023/08/22 07:01:08;;;;;;;14.57;10.07;;;20.20;99.90;;;;;;5074833;28;20126;-66
2023/08/22 07:03:34;;;;;;;14.25;9.80;;;20.20;99.90;;;;;;5074967;28;20036;-66
2023/08/22 07:05:59;;;;;;;16.27;10.27;;;20.10;99.90;;;;;;5074931;28;20051;-67
2023/08/22 07:08:25;;;;;;;16.02;9.13;;;20.10;99.90;;;;;;5075014;28;20036;-66
2023/08/22 07:10:51;;;;;;;17.77;10.02;;;20.20;99.90;;;;;;5074993;28;20475;-66
2023/08/22 07:13:16;;;;;;;12.45;8.93;;;20.20;99.90;;;;;;5074594;28;20044;-66
2023/08/22 07:15:43;;;;;;;19.73;10.50;;;20.30;99.90;;;;;;5074324;28;20036;-66
2023/08/22 07:18:09;;;;;;;17.45;10.02;;;20.40;99.90;;;;;;5074906;28;20045;-66
2023/08/22 07:20:35;;;;;;;17.35;9.43;;;20.50;99.90;;;;;;5074730;28;20087;-66
2023/08/22 07:23:00;;;;;;;16.35;9.60;;;20.60;99.90;;;;;;5074741;28;20040;-66
2023/08/22 07:25:26;;;;;;;14.85;10.07;;;20.70;99.90;;;;;;5074386;28;20410;-66
2023/08/22 07:27:51;;;;;;;15.55;8.63;;;20.90;99.90;;;;;;5074455;28;20032;-66
2023/08/22 07:30:17;;;;;;;14.05;7.63;;;21.10;99.90;;;;;;5074246;28;20041;-66
2023/08/22 07:32:43;;;;;;;12.85;7.47;;;21.20;99.90;;;;;;5074709;28;20624;-66
2023/08/22 07:35:08;;;;;;;11.82;7.75;;;21.30;99.90;;;;;;5074100;28;20482;-66
2023/08/22 07:37:34;;;;;;;11.18;6.55;;;21.40;99.90;;;;;;5074496;28;20082;-66
2023/08/22 07:40:00;;;;;;;13.02;6.50;;;21.50;99.90;;;;;;5074429;28;20043;-66
2023/08/22 07:42:25;;;;;;;9.07;6.70;;;21.60;99.90;;;;;;5074145;28;20115;-66
2023/08/22 07:44:51;;;;;;;11.52;6.28;;;21.70;99.90;;;;;;5073944;28;20040;-66
2023/08/22 07:47:16;;;;;;;11.35;6.32;;;21.90;99.90;;;;;;5072674;28;20048;-66
2023/08/22 07:49:42;;;;;;;10.30;5.57;;;22.00;99.90;;;;;;5074274;28;20038;-66
2023/08/22 07:52:08;;;;;;;13.35;5.68;;;22.10;99.90;;;;;;5073697;28;20036;-66
2023/08/22 07:54:33;;;;;;;11.88;5.35;;;22.20;99.90;;;;;;5072548;28;20041;-66
2023/08/22 07:57:00;;;;;;;7.13;4.97;;;22.30;99.90;;;;;;5072768;28;20048;-66
2023/08/22 07:59:25;;;;;;;8.75;4.47;;;22.30;99.90;;;;;;5074133;28;20036;-66
2023/08/22 08:01:51;;;;;;;5.50;4.00;;;22.40;99.90;;;;;;5073871;28;20120;-66
2023/08/22 08:04:17;;;;;;;9.00;4.10;;;22.50;99.90;;;;;;5073168;28;20449;-66
2023/08/22 08:06:42;;;;;;;6.80;4.07;;;22.60;99.90;;;;;;5073424;28;20071;-66
2023/08/22 08:09:08;;;;;;;6.88;3.15;;;22.70;99.90;;;;;;5073984;28;20037;-66
2023/08/22 08:11:34;;;;;;;5.65;3.15;;;22.80;99.90;;;;;;5073743;28;20037;-66
2023/08/22 08:14:01;;;;;;;6.55;3.17;;;22.90;99.90;;;;;;5073080;28;20376;-66
2023/08/22 08:16:26;;;;;;;5.22;2.70;;;23.00;99.90;;;;;;5073812;28;20082;-66
2023/08/22 08:18:52;;;;;;;5.45;2.65;;;23.00;99.90;;;;;;5073806;28;20521;-66
2023/08/22 08:21:18;;;;;;;5.30;2.40;;;23.00;99.90;;;;;;5071402;28;20040;-66
2023/08/22 08:23:44;;;;;;;3.45;2.15;;;23.00;99.90;;;;;;5071756;28;20045;-66
2023/08/22 08:26:11;;;;;;;4.82;1.92;;;23.00;99.90;;;;;;5073357;28;20043;-66
2023/08/22 08:28:37;;;;;;;1.88;1.30;;;23.00;99.90;;;;;;5073665;28;20076;-66
2023/08/22 08:31:02;;;;;;;3.95;1.48;;;22.90;99.90;;;;;;5073378;28;20129;-66
2023/08/22 08:33:28;;;;;;;4.68;1.85;;;22.90;99.90;;;;;;5073287;28;20154;-66
2023/08/22 08:35:54;;;;;;;4.05;1.30;;;22.80;99.90;;;;;;5073180;28;20060;-66
2023/08/22 08:38:20;;;;;;;2.58;1.30;;;22.70;99.90;;;;;;5073389;28;20036;-66
2023/08/22 08:40:46;;;;;;;3.03;1.38;;;22.80;99.90;;;;;;5071932;28;20452;-66
2023/08/22 08:43:12;;;;;;;3.38;1.00;;;22.80;99.90;;;;;;5072213;28;20041;-66
2023/08/22 08:45:39;;;;;;;2.95;1.20;;;22.90;99.90;;;;;;5072980;28;20454;-66
2023/08/22 08:48:06;;;;;;;2.10;1.38;;;22.90;99.90;;;;;;5072641;28;20040;-66
2023/08/22 08:50:32;;;;;;;3.13;1.30;;;22.90;99.90;;;;;;5073003;28;20037;-66
2023/08/22 08:52:58;;;;;;;2.28;1.45;;;22.90;99.90;;;;;;5072567;28;20115;-67
2023/08/22 08:55:24;;;;;;;6.70;1.30;;;22.90;99.90;;;;;;5072166;28;20059;-67
2023/08/22 08:57:52;;;;;;;5.05;1.20;;;23.00;99.90;;;;;;5072721;28;20044;-66
2023/08/22 09:00:18;;;;;;;4.80;1.38;;;23.10;99.90;;;;;;5073082;28;20040;-66
2023/08/22 09:02:44;;;;;;;3.83;1.67;;;23.20;99.90;;;;;;5072724;28;20036;-66
2023/08/22 09:05:11;;;;;;;5.35;2.22;;;23.20;99.90;;;;;;5072518;28;20047;-66
2023/08/22 09:07:37;;;;;;;5.07;2.00;;;23.20;99.90;;;;;;5072615;28;20115;-67
2023/08/22 09:10:04;;;;;;;3.03;1.70;;;23.30;99.90;;;;;;5072430;28;20227;-67
2023/08/22 09:12:36;;;;;;;3.55;1.50;;;23.30;99.90;;;;;;5072531;28;20032;-66
2023/08/22 09:15:07;;;;;;;3.70;1.30;;;23.30;99.90;;;;;;5072378;28;20128;-66
2023/08/22 09:17:32;;;;;;;1.90;1.23;;;23.30;99.90;;;;;;5072398;28;20036;-67
2023/08/22 09:19:58;;;;;;;4.22;1.50;;;23.40;99.90;;;;;;5072104;28;20101;-66
2023/08/22 09:22:30;;;;;;;2.20;1.40;;;23.50;99.90;;;;;;5072038;28;20108;-67
2023/08/22 09:24:56;;;;;;;6.00;1.38;;;23.60;99.90;;;;;;5072037;28;20033;-67
2023/08/22 09:27:26;;;;;;;6.13;1.48;;;23.50;99.90;;;;;;5071971;28;20395;-66
2023/08/22 09:29:53;;;;;;;4.07;1.60;;;23.40;99.90;;;;;;5072492;28;20036;-67
2023/08/22 09:32:22;;;;;;;2.28;1.30;;;23.20;99.90;;;;;;5071846;28;20036;-66
2023/08/22 09:34:55;;;;;;;4.38;1.48;;;23.20;99.90;;;;;;5071661;28;20067;-66
2023/08/22 09:37:35;;;;;;;3.25;1.90;;;23.20;99.90;;;;;;5072048;28;20043;-66
2023/08/22 09:40:03;;;;;;;3.47;1.42;;;23.30;99.90;;;;;;5072183;28;20501;-66
2023/08/22 09:42:30;;;;;;;5.43;1.70;;;23.40;99.90;;;;;;5070902;28;20086;-66
2023/08/22 09:44:57;;;;;;;3.60;1.80;;;23.50;99.90;;;;;;5071759;28;20040;-66
2023/08/22 09:47:32;;;;;;;4.22;1.40;;;23.70;99.90;;;;;;5071990;28;20076;-66
2023/08/22 09:50:05;;;;;;;3.13;1.48;;;23.80;99.90;;;;;;5072026;28;20218;-66
2023/08/22 09:52:31;;;;;;;4.50;1.75;;;24.00;99.90;;;;;;5072102;28;20028;-67
2023/08/22 09:54:57;;;;;;;3.80;1.67;;;24.20;99.90;;;;;;5070804;28;20572;-67
2023/08/22 09:57:27;;;;;;;5.95;1.88;;;24.30;99.90;;;;;;5072069;28;20044;-67
2023/08/22 09:59:53;;;;;;;4.77;2.13;;;24.40;99.90;;;;;;5071952;28;20032;-66
2023/08/22 10:02:19;;;;;;;5.03;1.92;;;24.60;99.90;;;;;;5071590;28;20498;-67
2023/08/22 10:04:46;;;;;;;3.25;1.60;;;24.80;99.90;;;;;;5071685;28;20082;-66
2023/08/22 10:07:12;;;;;;;2.33;1.42;;;24.80;99.90;;;;;;5070464;28;20049;-67
2023/08/22 10:09:39;;;;;;;3.63;2.03;;;24.60;99.90;;;;;;5071502;28;20036;-67
2023/08/22 10:12:11;;;;;;;4.05;2.05;;;24.40;99.90;;;;;;5070339;28;20041;-67
2023/08/22 10:14:46;;;;;;;3.22;1.60;;;24.40;99.90;;;;;;5071110;28;20040;-66
2023/08/22 10:17:15;;;;;;;4.82;1.60;;;24.40;99.90;;;;;;5070732;28;20115;-67
2023/08/22 10:19:42;;;;;;;5.30;1.95;;;24.50;99.90;;;;;;5071631;28;20033;-66
2023/08/22 10:22:13;;;;;;;3.85;2.08;;;24.70;99.90;;;;;;5071791;28;20064;-67
2023/08/22 10:24:39;;;;;;;;;;;24.90;99.90;;;;;;5071514;28;20115;-66
2023/08/22 10:27:06;;;;;;;6.93;2.25;;;25.00;99.90;;;;;;5071336;28;19917;-67
2023/08/22 10:29:37;;;;;;;3.35;1.80;;;25.00;99.90;;;;;;5071557;28;20052;-66
2023/08/22 10:32:02;;;;;;;3.80;2.20;;;24.90;99.90;;;;;;5071680;28;20090;-66
2023/08/22 10:34:34;;;;;;;4.15;1.98;;;24.80;99.90;;;;;;5071008;28;20119;-67
2023/08/22 10:37:01;;;;;;;3.58;1.77;;;24.50;99.90;;;;;;5071564;28;20097;-66
2023/08/22 10:39:39;;;;;;;5.05;2.03;;;24.40;99.90;;;;;;5069984;28;20037;-66
2023/08/22 10:42:06;;;;;;;4.35;1.83;;;24.40;99.90;;;;;;5071695;28;20079;-66
2023/08/22 10:44:31;;;;;;;2.97;1.90;;;24.50;99.90;;;;;;5069387;28;20508;-67
2023/08/22 10:47:05;;;;;;;4.22;2.30;;;24.60;99.90;;;;;;5071468;28;20112;-66
2023/08/22 10:49:31;;;;;;;3.80;1.88;;;24.60;99.90;;;;;;5071531;28;20044;-66
2023/08/22 10:52:06;;;;;;;3.80;1.98;;;24.70;99.90;;;;;;5070977;28;20086;-66
2023/08/22 10:54:51;;;;;;;4.50;2.00;;;24.80;99.90;;;;;;5070756;28;20370;-66
2023/08/22 10:57:18;;;;;;;5.25;1.58;;;24.80;99.90;;;;;;5071482;28;20072;-66
2023/08/22 11:00:19;;;;;;;3.72;1.70;;;24.70;99.90;;;;;;5071377;28;20070;-67
2023/08/22 11:02:47;;;;;;;2.88;1.30;;;24.60;99.90;;;;;;5051369;28;20057;-67
2023/08/22 11:05:14;;;;;;;3.33;1.40;;;24.60;99.90;;;;;;5072099;28;20115;-67
2023/08/22 11:07:46;;;;;;;3.50;1.27;;;24.60;99.90;;;;;;5074997;28;20094;-66
2023/08/22 11:10:18;;;;;;;3.70;1.58;;;24.50;99.90;;;;;;5075059;28;20036;-67
2023/08/22 11:12:45;;;;;;;5.28;1.42;;;24.50;99.90;;;;;;5073509;28;20119;-67
2023/08/22 11:15:14;;;;;;;3.08;1.42;;;24.60;99.90;;;;;;5074036;28;20506;-67
2023/08/22 11:17:40;;;;;;;4.97;1.90;;;24.80;99.90;;;;;;5074596;28;20539;-66
2023/08/22 11:20:17;;;;;;;4.10;1.80;;;24.90;99.90;;;;;;5074501;28;20493;-67
2023/08/22 11:22:44;;;;;;;5.68;2.10;;;25.00;99.90;;;;;;5074770;28;20124;-66
2023/08/22 11:25:13;;;;;;;3.75;1.92;;;25.10;99.90;;;;;;5072955;28;20055;-67
2023/08/22 11:27:40;;;;;;;5.47;2.33;;;25.20;99.90;;;;;;5074350;28;20410;-67
2023/08/22 11:30:07;;;;;;;3.70;1.83;;;25.40;99.90;;;;;;5074371;28;20087;-67
2023/08/22 11:32:35;;;;;;;4.28;1.77;;;25.60;99.90;;;;;;5073280;28;20037;-66
2023/08/22 11:35:05;;;;;;;5.00;1.75;;;25.60;99.90;;;;;;5074397;28;20139;-67
2023/08/22 11:37:33;;;;;;;4.07;1.60;;;25.60;99.90;;;;;;5073377;28;20052;-66
2023/08/22 11:39:59;;;;;;;2.63;1.38;;;25.70;99.90;;;;;;5073250;28;20067;-67
2023/08/22 11:42:26;;;;;;;4.13;1.67;;;25.60;99.90;;;;;;5074374;28;20044;-67
2023/08/22 11:44:59;;;;;;;4.70;1.58;;;25.60;99.90;;;;;;5074051;28;20537;-66
2023/08/22 11:47:37;;;;;;;3.45;1.20;;;25.70;99.90;;;;;;5074206;28;20509;-66
2023/08/22 11:50:04;;;;;;;3.40;1.48;;;25.80;99.90;;;;;;5074349;28;20044;-67
2023/08/22 11:52:30;;;;;;;1.88;1.30;;;25.90;99.50;;;;;;5072797;28;20040;-67
2023/08/22 11:55:06;;;;;;;3.42;1.20;;;25.90;98.30;;;;;;5072567;28;20059;-67
2023/08/22 11:57:35;;;;;;;3.22;1.58;;;26.00;99.40;;;;;;5071926;28;20040;-67
2023/08/22 12:00:08;;;;;;;4.53;1.33;;;26.00;98.10;;;;;;5073816;28;20028;-67
2023/08/22 12:02:35;;;;;;;3.92;1.42;;;26.00;97.80;;;;;;5072245;28;20048;-67
2023/08/22 12:05:01;;;;;;;2.20;0.90;;;26.10;97.30;;;;;;5069090;28;20472;-67
2023/08/22 12:07:27;;;;;;;3.35;0.90;;;26.10;96.70;;;;;;5067048;28;20045;-68
2023/08/22 12:10:12;;;;;;;2.28;0.70;;;26.20;97.30;;;;;;5069489;28;20029;-66
2023/08/22 12:12:41;;;;;;;1.45;0.70;;;26.30;96.10;;;;;;5066332;28;20047;-68
2023/08/22 12:15:07;;;;;;;2.58;0.65;;;26.40;96.40;;;;;;5072798;28;20409;-68
2023/08/22 12:17:32;;;;;;;7.13;1.48;;;26.40;95.30;;;;;;5071412;28;20082;-68
2023/08/22 12:19:58;;;;;;;1.75;0.70;;;26.40;94.90;;;;;;5072746;28;20055;-67
2023/08/22 12:22:23;;;;;;;2.92;0.85;;;26.40;94.90;;;;;;5072958;28;20110;-67
2023/08/22 12:24:49;;;;;;;2.28;0.60;;;26.40;94.90;;;;;;5071682;28;20119;-67
2023/08/22 12:27:14;;;;;;;4.80;0.90;;;26.50;95.50;;;;;;5072329;28;20046;-67
2023/08/22 12:29:41;;;;;;;2.22;0.73;;;26.50;95.10;;;;;;5073190;28;20432;-67
2023/08/22 12:32:07;;;;;;;1.83;0.93;;;26.60;94.10;;;;;;5061448;28;20091;-65
2023/08/22 12:34:32;;;;;;;1.60;0.38;;;26.50;93.70;;;;;;5065852;28;20046;-66
2023/08/22 12:36:58;;;;;;;2.92;0.60;;;26.50;92.70;;;;;;5070093;28;20037;-65
2023/08/22 12:39:24;;;;;;;1.63;0.75;;;26.50;92.60;;;;;;5071889;28;20032;-65
2023/08/22 12:41:50;;;;;;;4.60;1.10;;;26.50;91.30;;;;;;5073276;28;20039;-66
2023/08/22 12:44:15;;;;;;;3.15;0.68;;;26.40;91.20;;;;;;5081761;22;20401;-65